createdAt,value
2022-10-07T00:04:57.017Z,6.00
2022-10-07T00:11:11.425Z,6.30
2022-10-07T00:14:17.850Z,7.10
2022-10-07T00:17:24.038Z,7.90
2022-10-07T00:23:34.835Z,6.80
2022-10-07T00:26:41.348Z,6.40
2022-10-07T00:29:47.714Z,6.60
2022-10-07T00:32:53.941Z,6.40
2022-10-07T00:36:00.289Z,7.90
2022-10-07T00:39:08.795Z,6.60
2022-10-07T00:42:15.774Z,6.50
2022-10-07T00:45:22.047Z,6.30
2022-10-07T00:48:32.343Z,7.40
2022-10-07T00:51:40.307Z,6.60
2022-10-07T00:54:46.573Z,7.30
2022-10-07T00:57:56.135Z,7.60
2022-10-07T01:01:02.849Z,7.40
2022-10-07T01:04:10.076Z,7.00
2022-10-07T01:07:21.877Z,7.20
2022-10-07T01:10:37.380Z,6.60
2022-10-07T01:13:48.747Z,7.20
2022-10-07T01:17:02.294Z,7.40
2022-10-07T01:20:32.007Z,7.60
2022-10-07T01:23:58.376Z,8.00
2022-10-07T01:27:07.482Z,8.00
2022-10-07T01:30:14.789Z,7.50
2022-10-07T01:33:27.995Z,7.90
2022-10-07T01:36:38.304Z,8.20
2022-10-07T01:39:49.950Z,9.20
2022-10-07T01:42:56.954Z,8.60
2022-10-07T01:46:04.923Z,8.90
2022-10-07T01:49:11.193Z,9.30
2022-10-07T01:52:45.348Z,8.50
2022-10-07T01:56:11.998Z,8.70
2022-10-07T01:59:51.361Z,8.40
2022-10-07T02:03:21.574Z,8.50
2022-10-07T02:06:38.757Z,8.80
2022-10-07T02:09:50.784Z,8.00
2022-10-07T02:13:06.057Z,8.50
2022-10-07T02:16:18.516Z,7.90
2022-10-07T02:19:29.975Z,8.20
2022-10-07T02:22:37.262Z,7.90
2022-10-07T02:25:46.888Z,8.90
2022-10-07T02:28:55.592Z,8.30
2022-10-07T02:32:05.647Z,9.10
2022-10-07T02:35:19.050Z,9.00
2022-10-07T02:38:26.426Z,8.00
2022-10-07T02:41:41.958Z,8.90
2022-10-07T02:44:53.574Z,8.10
2022-10-07T02:48:04.407Z,9.10
2022-10-07T02:51:21.073Z,9.20
2022-10-07T02:54:34.761Z,8.50
2022-10-07T02:57:43.882Z,8.40
2022-10-07T03:00:54.506Z,8.60
2022-10-07T03:04:01.632Z,8.90
2022-10-07T03:07:08.353Z,8.50
2022-10-07T03:10:15.267Z,8.50
2022-10-07T03:13:21.468Z,8.10
2022-10-07T03:19:32.241Z,8.40
2022-10-07T03:25:43.135Z,8.00
2022-10-07T03:31:54.802Z,7.20
2022-10-07T03:35:00.955Z,7.80
2022-10-07T03:41:14.701Z,8.00
2022-10-07T03:44:22.632Z,7.90
2022-10-07T03:47:28.878Z,8.30
2022-10-07T03:53:40.697Z,8.70
2022-10-07T03:56:46.834Z,8.10
2022-10-07T04:03:00.005Z,8.60
2022-10-07T04:06:06.535Z,9.10
2022-10-07T04:09:15.434Z,8.10
2022-10-07T04:12:21.552Z,8.30
2022-10-07T04:15:27.767Z,8.00
2022-10-07T04:21:38.830Z,7.60
2022-10-07T04:27:54.230Z,7.60
2022-10-07T04:31:00.537Z,8.10
2022-10-07T04:34:07.002Z,7.30
2022-10-07T04:37:13.170Z,7.20
2022-10-07T04:43:26.960Z,7.10
2022-10-07T04:46:33.194Z,7.00
2022-10-07T04:52:44.564Z,7.10
2022-10-07T04:55:52.367Z,6.40
2022-10-07T04:58:58.529Z,6.20
2022-10-07T05:05:10.798Z,5.90
2022-10-07T05:08:18.527Z,6.20
2022-10-07T05:11:26.061Z,5.60
2022-10-07T05:14:32.990Z,6.50
2022-10-07T05:17:41.207Z,7.30
2022-10-07T05:20:48.442Z,6.40
2022-10-07T05:23:54.615Z,6.50
2022-10-07T05:30:05.722Z,5.60
2022-10-07T05:33:12.204Z,5.70
2022-10-07T05:36:18.956Z,5.70
2022-10-07T05:39:25.162Z,5.60
2022-10-07T05:45:35.801Z,5.80
2022-10-07T05:48:42.434Z,5.40
2022-10-07T05:51:49.228Z,5.30
2022-10-07T05:54:55.405Z,4.80
2022-10-07T06:01:13.103Z,4.90
2022-10-07T06:04:20.606Z,5.30
2022-10-07T06:07:29.283Z,4.90
2022-10-07T06:10:57.672Z,4.70
2022-10-07T06:14:04.370Z,4.60
2022-10-07T06:17:10.606Z,4.80
2022-10-07T06:23:21.408Z,4.90
2022-10-07T06:26:27.582Z,4.80
2022-10-07T06:29:33.980Z,5.20
2022-10-07T06:32:40.106Z,4.80
2022-10-07T06:35:47.393Z,4.90
2022-10-07T06:38:54.604Z,4.70
2022-10-07T06:42:00.895Z,4.70
2022-10-07T06:45:08.594Z,4.40
2022-10-07T06:48:14.798Z,4.70
2022-10-07T06:54:26.248Z,4.40
2022-10-07T07:00:58.188Z,6.10
2022-10-07T07:04:04.520Z,6.70
2022-10-07T07:07:11.827Z,6.10
2022-10-07T07:10:18.130Z,6.80
2022-10-07T07:13:24.816Z,8.30
2022-10-07T07:16:31.567Z,9.10
2022-10-07T07:19:37.875Z,10.10
2022-10-07T07:22:44.332Z,9.50
2022-10-07T07:25:50.599Z,8.70
2022-10-07T07:28:58.994Z,9.60
2022-10-07T07:32:06.406Z,9.20
2022-10-07T07:35:12.974Z,9.30
2022-10-07T07:38:24.773Z,10.40
2022-10-07T07:41:33.640Z,9.50
2022-10-07T07:44:40.357Z,9.50
2022-10-07T07:47:49.613Z,11.50
2022-10-07T07:50:55.886Z,10.90
2022-10-07T07:54:02.453Z,10.00
2022-10-07T07:57:09.046Z,11.20
2022-10-07T08:00:16.458Z,9.60
2022-10-07T08:03:22.952Z,9.90
2022-10-07T08:06:30.352Z,9.40
2022-10-07T08:09:36.608Z,9.00
2022-10-07T08:12:42.760Z,9.80
2022-10-07T08:18:55.546Z,9.20
2022-10-07T08:22:01.820Z,9.30
2022-10-07T08:25:09.571Z,8.50
2022-10-07T08:28:16.742Z,7.90
2022-10-07T08:31:23.439Z,8.10
2022-10-07T08:34:29.727Z,8.20
2022-10-07T08:37:35.808Z,7.50
2022-10-07T08:40:49.699Z,8.10
2022-10-07T08:43:59.356Z,7.20
2022-10-07T08:47:17.031Z,6.90
2022-10-07T08:50:27.795Z,6.90
2022-10-07T08:53:36.793Z,7.00
2022-10-07T08:56:43.962Z,6.80
2022-10-07T08:59:56.396Z,6.50
2022-10-07T09:03:13.602Z,6.70
2022-10-07T09:06:33.037Z,6.70
2022-10-07T09:09:44.925Z,6.60
2022-10-07T09:12:56.526Z,6.70
2022-10-07T09:16:10.320Z,6.60
2022-10-07T09:19:23.748Z,6.40
2022-10-07T09:22:34.329Z,6.90
2022-10-07T09:25:45.238Z,7.00
2022-10-07T09:28:51.560Z,7.30
2022-10-07T09:31:59.265Z,6.10
2022-10-07T09:35:06.227Z,6.90
2022-10-07T09:38:12.471Z,6.80
2022-10-07T09:41:26.819Z,7.20
2022-10-07T09:44:40.239Z,6.40
2022-10-07T09:47:52.729Z,7.30
2022-10-07T09:51:16.236Z,7.10
2022-10-07T09:54:22.943Z,6.90
2022-10-07T09:57:38.872Z,6.90
2022-10-07T10:00:47.962Z,6.80
2022-10-07T10:04:01.062Z,6.70
2022-10-07T10:07:19.605Z,6.60
2022-10-07T10:10:28.619Z,6.70
2022-10-07T10:14:36.272Z,7.20
2022-10-07T10:17:43.262Z,6.30
2022-10-07T10:20:49.446Z,7.80
2022-10-07T10:23:58.252Z,6.40
2022-10-07T10:27:12.672Z,6.60
2022-10-07T10:30:23.477Z,6.20
2022-10-07T10:33:37.528Z,6.10
2022-10-07T10:36:51.696Z,6.60
2022-10-07T10:40:09.812Z,6.20
2022-10-07T10:43:23.983Z,5.60
2022-10-07T10:46:49.662Z,6.60
2022-10-07T10:50:08.317Z,7.20
2022-10-07T10:53:27.654Z,6.20
2022-10-07T10:56:42.590Z,6.20
2022-10-07T11:00:04.793Z,6.30
2022-10-07T11:03:27.956Z,6.00
2022-10-07T11:06:38.341Z,7.10
2022-10-07T11:09:49.840Z,6.40
2022-10-07T11:12:59.284Z,6.30
2022-10-07T11:16:12.589Z,6.20
2022-10-07T11:19:24.185Z,6.00
2022-10-07T11:22:40.603Z,5.50
2022-10-07T11:25:53.838Z,5.90
2022-10-07T11:29:03.353Z,5.10
2022-10-07T11:32:14.337Z,5.80
2022-10-07T11:35:30.224Z,12.80
2022-10-07T11:38:39.044Z,5.90
2022-10-07T11:41:53.326Z,5.90
2022-10-07T11:45:03.769Z,5.10
2022-10-07T11:48:15.898Z,5.70
2022-10-07T11:51:28.792Z,5.30
2022-10-07T11:54:44.704Z,5.70
2022-10-07T11:57:55.865Z,5.80
2022-10-07T12:01:47.893Z,5.80
2022-10-07T12:04:54.200Z,5.50
2022-10-07T12:08:02.291Z,5.30
2022-10-07T12:11:45.822Z,5.40
2022-10-07T12:15:02.389Z,5.50
2022-10-07T12:18:28.581Z,4.70
2022-10-07T12:22:11.918Z,5.10
2022-10-07T12:25:33.256Z,4.50
2022-10-07T12:28:48.820Z,4.60
2022-10-07T12:35:19.665Z,4.50
2022-10-07T12:38:28.081Z,4.50
2022-10-07T12:41:44.064Z,4.60
2022-10-07T12:44:52.790Z,8.30
2022-10-07T12:48:02.714Z,4.80
2022-10-07T12:51:19.878Z,4.70
2022-10-07T12:54:32.591Z,4.80
2022-10-07T12:57:42.188Z,4.50
2022-10-07T13:01:01.214Z,4.70
2022-10-07T13:04:31.854Z,4.00
2022-10-07T13:08:21.246Z,4.40
2022-10-07T13:12:11.567Z,4.60
2022-10-07T13:15:33.838Z,4.70
2022-10-07T13:18:45.542Z,5.10
2022-10-07T13:22:00.959Z,5.50
2022-10-07T13:25:13.140Z,5.50
2022-10-07T13:28:22.485Z,4.80
2022-10-07T13:31:30.722Z,5.00
2022-10-07T13:34:38.238Z,4.80
2022-10-07T13:37:48.869Z,4.50
2022-10-07T13:41:04.757Z,5.10
2022-10-07T13:44:15.462Z,4.90
2022-10-07T13:47:22.808Z,5.30
2022-10-07T13:50:30.852Z,5.60
2022-10-07T13:53:38.623Z,5.00
2022-10-07T13:56:45.903Z,5.40
2022-10-07T13:59:53.084Z,5.30
2022-10-07T14:02:59.418Z,5.00
2022-10-07T14:06:05.717Z,4.80
2022-10-07T14:09:22.568Z,5.30
2022-10-07T14:12:35.261Z,5.30
2022-10-07T14:15:51.047Z,5.30
2022-10-07T14:18:57.619Z,5.20
2022-10-07T14:22:06.050Z,5.50
2022-10-07T14:25:21.014Z,5.10
2022-10-07T14:28:34.721Z,7.20
2022-10-07T14:31:58.734Z,6.90
2022-10-07T14:35:19.967Z,5.10
2022-10-07T14:38:30.287Z,4.90
2022-10-07T14:41:36.620Z,5.30
2022-10-07T14:44:44.121Z,4.90
2022-10-07T14:47:51.322Z,5.60
2022-10-07T14:50:57.445Z,5.00
2022-10-07T14:54:08.096Z,5.30
2022-10-07T14:57:14.323Z,5.30
2022-10-07T15:00:23.156Z,5.00
2022-10-07T15:03:31.055Z,5.20
2022-10-07T15:06:38.079Z,5.10
2022-10-07T15:09:45.181Z,5.20
2022-10-07T15:12:51.346Z,4.90
2022-10-07T15:15:57.590Z,6.00
2022-10-07T15:19:04.075Z,6.90
2022-10-07T15:22:10.495Z,5.70
2022-10-07T15:25:18.137Z,6.50
2022-10-07T15:28:24.434Z,5.40
2022-10-07T15:31:31.789Z,5.80
2022-10-07T15:34:37.896Z,6.20
2022-10-07T15:37:46.034Z,6.30
2022-10-07T15:40:57.193Z,7.10
2022-10-07T15:44:04.951Z,6.10
2022-10-07T15:47:11.391Z,5.90
2022-10-07T15:50:17.644Z,6.70
2022-10-07T15:53:25.545Z,6.40
2022-10-07T15:56:31.912Z,6.40
2022-10-07T15:59:38.204Z,6.40
2022-10-07T16:02:44.880Z,6.20
2022-10-07T16:05:58.540Z,6.50
2022-10-07T16:09:05.870Z,6.30
2022-10-07T16:12:11.989Z,6.20
2022-10-07T16:15:18.392Z,5.70
2022-10-07T16:18:24.605Z,6.30
2022-10-07T16:21:33.190Z,6.70
2022-10-07T16:24:39.867Z,6.10
2022-10-07T16:28:03.825Z,5.80
2022-10-07T16:31:10.228Z,6.60
2022-10-07T16:34:18.485Z,6.20
2022-10-07T16:37:24.457Z,6.10
2022-10-07T16:43:35.973Z,6.00
2022-10-07T16:46:42.803Z,5.70
2022-10-07T16:49:48.985Z,6.10
2022-10-07T16:52:55.034Z,7.60
2022-10-07T16:59:09.895Z,6.30
2022-10-07T17:02:17.117Z,6.50
2022-10-07T17:05:23.094Z,6.50
2022-10-07T17:11:38.170Z,7.10
2022-10-07T17:14:44.323Z,15.90
2022-10-07T17:17:53.897Z,17.90
2022-10-07T17:21:00.243Z,10.60
2022-10-07T17:24:06.890Z,7.40
2022-10-07T17:27:12.871Z,11.20
2022-10-07T17:33:23.789Z,7.70
2022-10-07T17:36:32.157Z,8.20
2022-10-07T17:39:38.252Z,8.00
2022-10-07T17:45:49.338Z,8.50
2022-10-07T17:48:57.513Z,8.00
2022-10-07T17:52:03.555Z,8.20
2022-10-07T17:58:15.327Z,9.70
2022-10-07T18:01:24.284Z,9.60
2022-10-07T18:04:31.242Z,9.20
2022-10-07T18:07:37.409Z,10.20
2022-10-07T18:10:43.556Z,9.10
2022-10-07T18:14:07.068Z,10.10
2022-10-07T18:17:13.640Z,11.80
2022-10-07T18:20:21.402Z,13.10
2022-10-07T18:23:29.552Z,12.60
2022-10-07T18:26:35.614Z,11.40
2022-10-07T18:32:46.274Z,12.20
2022-10-07T18:38:56.715Z,12.20
2022-10-07T18:42:04.552Z,29.00
2022-10-07T18:45:12.244Z,49.30
2022-10-07T18:48:18.416Z,38.60
2022-10-07T18:51:24.595Z,28.80
2022-10-07T18:54:30.674Z,16.10
2022-10-07T19:00:44.245Z,13.70
2022-10-07T19:03:55.248Z,13.10
2022-10-07T19:07:02.723Z,12.00
2022-10-07T19:10:10.985Z,11.30
2022-10-07T19:13:35.413Z,10.10
2022-10-07T19:16:43.074Z,11.30
2022-10-07T19:19:49.259Z,9.70
2022-10-07T19:26:01.950Z,10.00
2022-10-07T19:29:10.227Z,10.00
2022-10-07T19:32:16.304Z,9.70
2022-10-07T19:38:27.388Z,9.90
2022-10-07T19:41:36.115Z,10.20
2022-10-07T19:44:43.351Z,10.10
2022-10-07T19:47:49.623Z,9.80
2022-10-07T19:51:02.103Z,9.80
2022-10-07T19:54:12.088Z,10.70
2022-10-07T19:57:17.968Z,9.90
2022-10-07T20:00:25.733Z,10.30
2022-10-07T20:03:31.874Z,9.50
2022-10-07T20:12:48.265Z,9.50
2022-10-07T20:19:05.642Z,10.60
2022-10-07T20:22:12.759Z,10.10
2022-10-07T20:25:19.027Z,9.50
2022-10-07T20:28:25.549Z,9.20
2022-10-07T20:31:34.056Z,10.60
2022-10-07T20:34:40.041Z,11.60
2022-10-07T20:37:46.174Z,11.10
2022-10-07T20:41:14.188Z,10.10
2022-10-07T20:44:20.862Z,10.80
2022-10-07T20:47:30.080Z,10.30
2022-10-07T20:50:36.338Z,10.50
2022-10-07T20:53:42.323Z,10.10
2022-10-07T20:56:49.013Z,10.00
2022-10-07T20:59:55.374Z,10.40
2022-10-07T21:03:01.748Z,11.20
2022-10-07T21:06:09.647Z,10.20
2022-10-07T21:09:16.063Z,9.90
2022-10-07T21:12:22.495Z,11.90
2022-10-07T21:15:29.418Z,11.60
2022-10-07T21:18:35.640Z,12.00
2022-10-07T21:24:46.648Z,12.50
2022-10-07T21:27:53.725Z,11.60
2022-10-07T21:31:01.171Z,11.60
2022-10-07T21:34:08.757Z,11.30
2022-10-07T21:37:15.027Z,12.80
2022-10-07T21:40:21.948Z,12.60
2022-10-07T21:43:28.228Z,13.40
2022-10-07T21:46:36.860Z,13.80
2022-10-07T21:49:43.023Z,14.00
2022-10-07T21:55:55.021Z,12.10
2022-10-07T21:59:03.752Z,11.50
2022-10-07T22:02:10.111Z,11.00
2022-10-07T22:05:16.380Z,10.90
2022-10-07T22:11:46.015Z,13.50
2022-10-07T22:14:52.359Z,13.20
2022-10-07T22:17:58.419Z,12.80
2022-10-07T22:21:12.926Z,12.20
2022-10-07T22:24:19.066Z,11.40
2022-10-07T22:30:31.168Z,11.10
2022-10-07T22:33:38.528Z,10.70
2022-10-07T22:36:44.401Z,10.40
2022-10-07T22:39:50.476Z,10.50
2022-10-07T22:42:56.557Z,15.00
2022-10-07T22:46:02.846Z,14.80
2022-10-07T22:49:08.964Z,14.00
2022-10-07T22:52:15.253Z,14.50
2022-10-07T22:55:21.457Z,12.00
2022-10-07T23:01:33.326Z,14.80
2022-10-07T23:04:39.461Z,14.40
2022-10-07T23:07:45.457Z,17.10
2022-10-07T23:10:59.412Z,14.80
2022-10-07T23:14:05.744Z,13.50
2022-10-07T23:17:12.212Z,12.00
2022-10-07T23:20:19.307Z,11.50
2022-10-07T23:23:25.459Z,16.30
2022-10-07T23:29:36.566Z,10.20
2022-10-07T23:32:45.888Z,13.20
2022-10-07T23:35:56.064Z,12.80
2022-10-07T23:39:02.835Z,10.30
2022-10-07T23:42:08.896Z,10.00
2022-10-07T23:45:15.452Z,10.30
2022-10-07T23:48:21.867Z,10.40
2022-10-07T23:51:29.003Z,9.70
2022-10-07T23:54:35.118Z,9.70
2022-10-07T23:57:41.800Z,9.40
